Time;durP1;ratioP1;P1;durP2;ratioP2;P2;SDS_P1;SDS_P2;PMS_P1;PMS_P2;Temp;Humidity;BMP_temperature;BMP_pressure;BME280_temperature;BME280_humidity;BME280_pressure;Samples;Min_cycle;Max_cycle;Signal;HPM_P1;HPM_P2
2023/07/20 00:01:48;;;;;;;4.85;2.92;;;;;;;;;;5079063;28;20036;-87
2023/07/20 00:04:14;;;;;;;6.38;3.05;;;;;;;;;;5077370;28;20160;-87
2023/07/20 00:06:40;;;;;;;5.53;2.72;;;;;;;;;;5073328;28;20024;-88
2023/07/20 00:09:07;;;;;;;3.85;2.75;;;;;;;;;;5081585;28;20024;-87
2023/07/20 00:11:36;;;;;;;4.60;2.70;;;;;;;;;;5079706;28;20037;-88
2023/07/20 00:14:02;;;;;;;4.18;3.13;;;;;;;;;;5081115;28;20025;-88
2023/07/20 00:16:28;;;;;;;3.67;2.88;;;;;;;;;;5096126;28;20040;-87
2023/07/20 00:18:54;;;;;;;4.55;3.25;;;;;;;;;;5082924;28;20020;-90
2023/07/20 00:21:20;;;;;;;4.10;2.95;;;;;;;;;;5076125;28;20027;-87
2023/07/20 00:23:46;;;;;;;4.07;3.00;;;;;;;;;;5081165;28;20086;-87
2023/07/20 00:26:13;;;;;;;4.53;3.28;;;;;;;;;;5095546;28;20039;-88
2023/07/20 00:28:39;;;;;;;4.88;3.05;;;;;;;;;;5062945;28;20037;-89
2023/07/20 00:31:05;;;;;;;3.30;2.97;;;;;;;;;;5090284;28;20476;-87
2023/07/20 00:33:31;;;;;;;4.25;2.70;;;;;;;;;;5076649;28;20048;-88
2023/07/20 00:35:57;;;;;;;4.70;3.15;;;;;;;;;;5076404;28;20037;-88
2023/07/20 00:38:24;;;;;;;4.03;3.35;;;;;;;;;;5082342;28;20036;-86
2023/07/20 00:40:50;;;;;;;4.22;3.13;;;;;;;;;;5081693;28;20025;-88
2023/07/20 00:43:16;;;;;;;4.85;3.33;;;;;;;;;;5084904;28;20027;-84
2023/07/20 00:45:43;;;;;;;7.00;3.67;;;;;;;;;;5089531;28;20154;-87
2023/07/20 00:48:10;;;;;;;5.07;3.10;;;;;;;;;;5092738;28;20029;-88
2023/07/20 00:50:36;;;;;;;5.68;3.13;;;;;;;;;;5071357;28;20052;-86
2023/07/20 00:53:07;;;;;;;5.30;2.80;;;;;;;;;;5093055;28;20658;-86
2023/07/20 00:55:34;;;;;;;4.05;2.72;;;;;;;;;;5075095;28;20090;-86
2023/07/20 00:58:01;;;;;;;3.63;2.75;;;;;;;;;;5076162;28;20056;-86
2023/07/20 01:00:27;;;;;;;5.68;3.20;;;;;;;;;;5079888;28;20028;-85
2023/07/20 01:02:54;;;;;;;4.85;3.20;;;;;;;;;;5098299;28;20397;-86
2023/07/20 01:05:21;;;;;;;3.58;2.92;;;;;;;;;;5079947;28;20026;-89
2023/07/20 01:08:02;;;;;;;4.78;3.28;;;;;;;;;;5094404;28;20025;-88
2023/07/20 01:10:34;;;;;;;4.47;3.20;;;;;;;;;;5091796;28;20028;-86
2023/07/20 01:13:01;;;;;;;6.75;3.92;;;;;;;;;;5078349;28;20032;-88
2023/07/20 01:15:27;;;;;;;5.80;3.35;;;;;;;;;;5076410;28;20029;-88
2023/07/20 01:17:53;;;;;;;4.15;3.20;;;;;;;;;;5094766;28;20062;-86
2023/07/20 01:20:21;;;;;;;5.07;3.20;;;;;;;;;;5072320;28;20485;-87
2023/07/20 01:23:00;;;;;;;4.18;2.90;;;;;;;;;;5075540;28;20622;-87
2023/07/20 01:25:41;;;;;;;5.53;3.53;;;;;;;;;;5092031;28;20170;-83
2023/07/20 01:28:24;;;;;;;5.07;3.72;;;;;;;;;;5093945;28;20522;-86
2023/07/20 01:31:02;;;;;;;5.43;3.92;;;;;;;;;;5075627;28;20048;-88
2023/07/20 01:33:31;;;;;;;4.63;3.28;;;;;;;;;;5082205;28;20028;-85
2023/07/20 01:35:59;;;;;;;4.70;3.92;;;;;;;;;;5079245;28;20681;-86
2023/07/20 01:38:25;;;;;;;4.75;3.47;;;;;;;;;;5092955;28;20621;-89
2023/07/20 01:40:52;;;;;;;6.53;4.03;;;;;;;;;;5081824;28;20074;-87
2023/07/20 01:43:18;;;;;;;5.38;3.50;;;;;;;;;;5086693;28;20051;-87
2023/07/20 01:45:44;;;;;;;5.30;3.63;;;;;;;;;;5080233;28;20032;-89
2023/07/20 01:48:11;;;;;;;4.85;3.50;;;;;;;;;;5079251;28;20073;-87
2023/07/20 01:50:38;;;;;;;6.25;4.35;;;;;;;;;;5079920;28;20036;-87
2023/07/20 01:53:04;;;;;;;4.68;3.60;;;;;;;;;;5093025;28;20070;-87
2023/07/20 01:55:30;;;;;;;5.72;3.30;;;;;;;;;;5093122;28;20103;-88
2023/07/20 01:57:56;;;;;;;5.60;3.38;;;;;;;;;;5061789;28;20040;-87
2023/07/20 02:00:25;;;;;;;7.15;3.40;;;;;;;;;;5079982;28;20085;-87
2023/07/20 02:02:51;;;;;;;5.07;3.45;;;;;;;;;;5076782;28;20052;-85
2023/07/20 02:05:18;;;;;;;5.10;3.63;;;;;;;;;;5077743;28;20369;-87
2023/07/20 02:07:44;;;;;;;7.47;4.32;;;;;;;;;;5091598;28;20025;-87
2023/07/20 02:10:10;;;;;;;6.00;4.13;;;;;;;;;;5094210;28;20048;-88
2023/07/20 02:12:37;;;;;;;7.43;3.97;;;;;;;;;;5077672;28;20024;-89
2023/07/20 02:15:03;;;;;;;5.22;3.33;;;;;;;;;;5092157;28;20024;-86
2023/07/20 02:17:31;;;;;;;7.03;4.07;;;;;;;;;;5074988;28;20113;-87
2023/07/20 02:20:00;;;;;;;5.57;4.68;;;;;;;;;;5078224;28;20476;-88
2023/07/20 02:22:26;;;;;;;5.15;3.88;;;;;;;;;;5076424;28;20055;-84
2023/07/20 02:24:53;;;;;;;5.80;4.10;;;;;;;;;;5076136;28;20497;-85
2023/07/20 02:27:19;;;;;;;5.88;4.18;;;;;;;;;;5090799;28;20612;-87
2023/07/20 02:29:45;;;;;;;5.28;3.58;;;;;;;;;;5077986;28;20070;-87
2023/07/20 02:32:11;;;;;;;5.45;4.15;;;;;;;;;;5073148;28;20028;-87
2023/07/20 02:34:37;;;;;;;6.85;3.75;;;;;;;;;;5082713;28;20044;-88
2023/07/20 02:37:03;;;;;;;6.10;3.80;;;;;;;;;;5082203;28;20024;-89
2023/07/20 02:39:30;;;;;;;5.07;3.58;;;;;;;;;;5078738;28;20029;-83
2023/07/20 02:41:56;;;;;;;5.28;3.40;;;;;;;;;;5076249;28;20829;-86
2023/07/20 02:44:23;;;;;;;4.72;3.55;;;;;;;;;;5094298;28;20036;-84
2023/07/20 02:46:49;;;;;;;5.93;3.45;;;;;;;;;;5088906;28;20038;-86
2023/07/20 02:49:16;;;;;;;6.05;4.15;;;;;;;;;;5075051;28;20064;-87
2023/07/20 02:51:42;;;;;;;4.40;3.33;;;;;;;;;;5080663;28;20034;-87
2023/07/20 02:54:08;;;;;;;5.28;3.75;;;;;;;;;;5099387;28;20032;-87
2023/07/20 02:56:34;;;;;;;6.30;4.55;;;;;;;;;;5083575;28;20037;-88
2023/07/20 02:59:02;;;;;;;6.93;3.97;;;;;;;;;;5102606;28;20024;-85
2023/07/20 03:01:31;;;;;;;6.50;3.50;;;;;;;;;;5091373;28;20666;-87
2023/07/20 03:03:59;;;;;;;5.20;3.15;;;;;;;;;;5077797;28;20762;-83
2023/07/20 03:06:25;;;;;;;4.88;3.70;;;;;;;;;;5079761;28;20059;-89
2023/07/20 03:08:53;;;;;;;4.97;4.05;;;;;;;;;;5083222;28;20025;-88
2023/07/20 03:11:20;;;;;;;6.68;4.53;;;;;;;;;;5077677;28;20512;-84
2023/07/20 03:13:46;;;;;;;4.50;3.53;;;;;;;;;;5077604;28;20021;-85
2023/07/20 03:16:15;;;;;;;5.95;3.58;;;;;;;;;;5079304;28;20029;-88
2023/07/20 03:18:41;;;;;;;5.78;3.90;;;;;;;;;;5059939;28;20021;-87
2023/07/20 03:21:08;;;;;;;5.00;3.60;;;;;;;;;;5087740;28;20024;-83
2023/07/20 03:23:34;;;;;;;4.85;3.67;;;;;;;;;;5087881;28;20051;-85
2023/07/20 03:26:04;;;;;;;4.97;3.28;;;;;;;;;;5078051;28;20025;-86
2023/07/20 03:28:30;;;;;;;5.40;3.28;;;;;;;;;;5075302;28;20032;-87
2023/07/20 03:30:57;;;;;;;5.90;3.88;;;;;;;;;;5078442;28;20016;-87
2023/07/20 03:33:27;;;;;;;5.20;3.83;;;;;;;;;;5080500;28;20229;-87
2023/07/20 03:35:53;;;;;;;6.07;3.50;;;;;;;;;;5063958;28;20033;-88
2023/07/20 03:38:20;;;;;;;5.28;3.47;;;;;;;;;;5072055;28;20017;-84
2023/07/20 03:40:56;;;;;;;5.07;3.33;;;;;;;;;;5076753;28;20020;-89
2023/07/20 03:43:23;;;;;;;5.55;3.55;;;;;;;;;;5071812;28;20024;-86
2023/07/20 03:45:49;;;;;;;6.45;4.25;;;;;;;;;;5076373;28;20059;-84
2023/07/20 03:48:19;;;;;;;5.05;3.58;;;;;;;;;;5075184;28;20055;-88
2023/07/20 03:50:46;;;;;;;4.88;3.45;;;;;;;;;;5074074;28;20033;-86
2023/07/20 03:53:12;;;;;;;9.93;4.45;;;;;;;;;;5070387;28;20047;-88
2023/07/20 03:55:40;;;;;;;5.70;3.60;;;;;;;;;;5075490;28;20050;-87
2023/07/20 03:58:07;;;;;;;5.43;3.90;;;;;;;;;;5076768;28;20021;-89
2023/07/20 04:00:33;;;;;;;6.00;3.58;;;;;;;;;;5073849;28;20025;-88
2023/07/20 04:02:59;;;;;;;5.30;3.80;;;;;;;;;;5076015;28;20401;-86
2023/07/20 04:05:25;;;;;;;6.38;3.65;;;;;;;;;;5074291;28;20035;-87
2023/07/20 04:07:52;;;;;;;5.18;3.90;;;;;;;;;;5080005;28;20213;-87
2023/07/20 04:10:18;;;;;;;4.50;3.25;;;;;;;;;;5080107;28;20036;-85
2023/07/20 04:12:46;;;;;;;5.15;3.63;;;;;;;;;;5096260;28;20029;-88
2023/07/20 04:15:13;;;;;;;4.97;3.92;;;;;;;;;;5078012;28;20028;-88
2023/07/20 04:17:39;;;;;;;5.72;3.22;;;;;;;;;;5081189;28;20032;-86
2023/07/20 04:20:05;;;;;;;5.18;3.20;;;;;;;;;;5076781;28;20028;-86
2023/07/20 04:22:32;;;;;;;4.95;3.33;;;;;;;;;;5081457;28;20701;-89
2023/07/20 04:24:58;;;;;;;6.15;3.53;;;;;;;;;;5080894;28;20032;-87
2023/07/20 04:27:24;;;;;;;8.48;4.13;;;;;;;;;;5096202;28;20032;-86
2023/07/20 04:29:50;;;;;;;5.22;3.28;;;;;;;;;;5082862;28;20037;-84
2023/07/20 04:32:16;;;;;;;6.38;3.63;;;;;;;;;;5079975;28;20046;-85
2023/07/20 04:34:42;;;;;;;5.85;3.65;;;;;;;;;;5081303;28;20093;-86
2023/07/20 04:37:09;;;;;;;6.45;3.60;;;;;;;;;;5081743;28;20054;-83
2023/07/20 04:39:35;;;;;;;5.50;3.70;;;;;;;;;;5103323;28;20059;-87
2023/07/20 04:42:01;;;;;;;6.10;3.15;;;;;;;;;;5098984;28;20027;-87
2023/07/20 04:44:27;;;;;;;4.95;3.60;;;;;;;;;;5104778;28;20020;-87
2023/07/20 04:46:54;;;;;;;9.90;3.75;;;;;;;;;;5096602;28;20464;-84
2023/07/20 04:49:20;;;;;;;4.50;3.53;;;;;;;;;;5080473;28;20096;-86
2023/07/20 04:51:46;;;;;;;7.70;3.53;;;;;;;;;;5082042;28;20033;-87
2023/07/20 04:54:13;;;;;;;6.88;4.35;;;;;;;;;;5078121;28;20029;-84
2023/07/20 04:56:40;;;;;;;5.55;3.50;;;;;;;;;;5094043;28;20494;-88
2023/07/20 04:59:06;;;;;;;6.05;4.10;;;;;;;;;;5076584;28;20023;-86
2023/07/20 05:01:32;;;;;;;4.43;3.33;;;;;;;;;;5075711;28;20105;-87
2023/07/20 05:03:58;;;;;;;6.30;3.67;;;;;;;;;;5079974;28;20442;-85
2023/07/20 05:06:24;;;;;;;5.18;3.53;;;;;;;;;;5096524;28;20040;-88
2023/07/20 05:08:50;;;;;;;4.63;3.33;;;;;;;;;;5080199;28;20036;-83
2023/07/20 05:11:16;;;;;;;5.57;3.17;;;;;;;;;;5083060;28;20036;-87
2023/07/20 05:13:43;;;;;;;4.75;4.03;;;;;;;;;;5076924;28;20029;-84
2023/07/20 05:16:09;;;;;;;5.68;3.50;;;;;;;;;;5076468;28;20028;-83
2023/07/20 05:18:36;;;;;;;7.88;3.72;;;;;;;;;;5094307;28;20035;-86
2023/07/20 05:21:02;;;;;;;5.45;3.35;;;;;;;;;;5081371;28;20019;-89
2023/07/20 05:23:28;;;;;;;6.18;3.92;;;;;;;;;;5092069;28;20044;-88
2023/07/20 05:25:56;;;;;;;5.22;3.40;;;;;;;;;;5079244;28;20020;-86
2023/07/20 05:28:23;;;;;;;6.63;4.60;;;;;;;;;;5094617;28;20524;-88
2023/07/20 05:30:51;;;;;;;6.10;3.78;;;;;;;;;;5076571;28;20093;-85
2023/07/20 05:33:17;;;;;;;5.13;3.92;;;;;;;;;;5082416;28;20039;-88
2023/07/20 05:35:44;;;;;;;6.35;3.65;;;;;;;;;;5076400;28;20060;-86
2023/07/20 05:38:10;;;;;;;4.88;3.67;;;;;;;;;;5078181;28;20018;-88
2023/07/20 05:40:38;;;;;;;6.22;4.75;;;;;;;;;;5079748;28;20063;-85
2023/07/20 05:43:04;;;;;;;5.22;3.67;;;;;;;;;;5062035;28;20036;-88
2023/07/20 05:45:31;;;;;;;5.47;3.65;;;;;;;;;;5072407;28;20029;-87
2023/07/20 05:47:57;;;;;;;6.55;3.90;;;;;;;;;;5095124;28;20397;-84
2023/07/20 05:50:23;;;;;;;5.30;3.70;;;;;;;;;;5096482;28;20031;-85
2023/07/20 05:52:49;;;;;;;5.97;3.80;;;;;;;;;;5078197;28;20016;-86
2023/07/20 05:55:16;;;;;;;6.32;3.80;;;;;;;;;;5079093;28;20104;-86
2023/07/20 05:57:43;;;;;;;6.85;4.22;;;;;;;;;;5077565;28;20035;-88
2023/07/20 06:00:09;;;;;;;6.63;4.13;;;;;;;;;;5093120;28;20070;-86
2023/07/20 06:02:35;;;;;;;6.13;4.05;;;;;;;;;;5077601;28;20058;-89
2023/07/20 06:05:02;;;;;;;5.97;3.58;;;;;;;;;;5080759;28;20032;-87
2023/07/20 06:07:28;;;;;;;6.75;3.72;;;;;;;;;;5080133;28;20101;-84
2023/07/20 06:09:54;;;;;;;6.63;3.85;;;;;;;;;;5076199;28;20029;-86
2023/07/20 06:12:20;;;;;;;6.05;3.67;;;;;;;;;;5090113;28;20116;-86
2023/07/20 06:14:47;;;;;;;6.78;4.57;;;;;;;;;;5075955;28;20025;-88
2023/07/20 06:17:19;;;;;;;6.45;4.18;;;;;;;;;;5076756;28;20047;-85
2023/07/20 06:19:45;;;;;;;7.97;6.18;;;;;;;;;;5097575;28;20021;-90
2023/07/20 06:22:15;;;;;;;7.25;4.85;;;;;;;;;;5083650;28;20016;-89
2023/07/20 06:24:41;;;;;;;12.70;10.52;;;;;;;;;;5093520;28;20754;-90
2023/07/20 06:27:07;;;;;;;13.70;12.30;;;;;;;;;;5077437;28;20040;-88
2023/07/20 06:29:34;;;;;;;10.27;6.50;;;;;;;;;;5079217;28;20036;-89
2023/07/20 06:32:01;;;;;;;13.10;11.15;;;;;;;;;;5075805;28;20048;-91
2023/07/20 06:34:29;;;;;;;7.03;5.78;;;;;;;;;;5079009;28;20066;-91
2023/07/20 06:36:56;;;;;;;8.52;5.75;;;;;;;;;;5096209;28;20024;-92
2023/07/20 06:39:25;;;;;;;11.40;4.57;;;;;;;;;;5081326;28;20071;-90
2023/07/20 06:41:54;;;;;;;6.63;4.80;;;;;;;;;;5095474;28;20020;-90
2023/07/20 06:44:21;;;;;;;6.35;4.05;;;;;;;;;;5080554;28;20028;-90
2023/07/20 06:46:48;;;;;;;8.40;4.82;;;;;;;;;;5088386;28;20004;-91
2023/07/20 06:49:25;;;;;;;7.95;4.97;;;;;;;;;;5090855;28;20064;-89
2023/07/20 06:51:52;;;;;;;7.80;5.32;;;;;;;;;;5096243;28;20040;-92
2023/07/20 06:54:18;;;;;;;9.90;4.75;;;;;;;;;;5072649;28;20035;-91
2023/07/20 06:56:44;;;;;;;6.63;4.30;;;;;;;;;;5073100;28;20036;-90
2023/07/20 06:59:10;;;;;;;7.05;4.45;;;;;;;;;;5079479;28;20029;-91
2023/07/20 07:01:36;;;;;;;7.32;4.45;;;;;;;;;;5078312;28;20055;-91
2023/07/20 07:04:05;;;;;;;5.20;4.07;;;;;;;;;;5079296;28;20031;-92
2023/07/20 07:06:32;;;;;;;7.32;4.18;;;;;;;;;;5078213;28;20085;-92
2023/07/20 07:08:59;;;;;;;10.40;4.70;;;;;;;;;;5075171;28;20029;-92
2023/07/20 07:11:25;;;;;;;9.60;4.68;;;;;;;;;;5081038;28;20075;-83
2023/07/20 07:13:51;;;;;;;8.15;4.75;;;;;;;;;;5081183;28;20039;-79
2023/07/20 07:16:19;;;;;;;7.18;5.13;;;;;;;;;;5092887;28;20076;-82
2023/07/20 07:18:48;;;;;;;8.82;4.32;;;;;;;;;;5075442;28;20048;-79
2023/07/20 07:21:14;;;;;;;8.57;5.07;;;;;;;;;;5083716;28;20021;-80
2023/07/20 07:23:40;;;;;;;9.93;5.65;;;;;;;;;;5069050;28;20028;-82
2023/07/20 07:26:07;;;;;;;6.95;4.88;;;;;;;;;;5064910;28;20024;-81
2023/07/20 07:28:33;;;;;;;7.30;4.85;;;;;;;;;;5078385;28;20440;-86
2023/07/20 07:30:59;;;;;;;7.95;4.53;;;;;;;;;;5074638;28;20021;-79
2023/07/20 07:33:25;;;;;;;8.90;5.25;;;;;;;;;;5074154;28;20032;-86
2023/07/20 07:35:54;;;;;;;6.10;4.88;;;;;;;;;;5069630;28;20021;-88
2023/07/20 07:38:20;;;;;;;9.32;5.53;;;;;;;;;;5057423;28;20021;-84
2023/07/20 07:40:47;;;;;;;9.50;6.30;;;;;;;;;;5075754;28;20547;-80
2023/07/20 07:43:13;;;;;;;9.85;5.07;;;;;;;;;;5076430;28;20055;-82
2023/07/20 07:45:40;;;;;;;11.13;5.25;;;;;;;;;;5080637;28;20103;-81
2023/07/20 07:48:07;;;;;;;7.95;5.50;;;;;;;;;;5076725;28;20188;-82
2023/07/20 07:50:34;;;;;;;9.05;6.05;;;;;;;;;;5073630;28;20036;-83
2023/07/20 07:53:00;;;;;;;7.88;5.88;;;;;;;;;;5082613;28;20040;-83
2023/07/20 07:55:27;;;;;;;8.45;5.70;;;;;;;;;;5073013;28;20032;-79
2023/07/20 07:57:58;;;;;;;8.30;5.78;;;;;;;;;;5078673;28;20029;-81
2023/07/20 08:00:24;;;;;;;9.05;6.25;;;;;;;;;;5077890;28;20408;-83
2023/07/20 08:02:51;;;;;;;7.88;5.03;;;;;;;;;;5068808;28;20033;-82
2023/07/20 08:05:17;;;;;;;10.18;5.88;;;;;;;;;;5084318;28;20051;-82
2023/07/20 08:07:43;;;;;;;8.27;5.65;;;;;;;;;;5074306;28;20043;-83
2023/07/20 08:10:09;;;;;;;9.65;6.00;;;;;;;;;;5077137;28;20094;-84
2023/07/20 08:12:39;;;;;;;8.65;6.00;;;;;;;;;;5074276;28;20492;-82
2023/07/20 08:15:05;;;;;;;8.85;5.20;;;;;;;;;;5089332;28;20033;-80
2023/07/20 08:17:31;;;;;;;8.85;5.90;;;;;;;;;;5089441;28;20078;-81
2023/07/20 08:19:57;;;;;;;12.32;6.43;;;;;;;;;;5076332;28;20021;-80
2023/07/20 08:22:23;;;;;;;8.73;6.30;;;;;;;;;;5091132;28;20028;-81
2023/07/20 08:24:51;;;;;;;8.73;6.28;;;;;;;;;;5073887;28;20031;-79
2023/07/20 08:27:17;;;;;;;7.38;4.95;;;;;;;;;;5072210;28;20107;-80
2023/07/20 08:29:43;;;;;;;8.30;5.65;;;;;;;;;;5089778;28;20032;-80
2023/07/20 08:32:10;;;;;;;7.63;5.18;;;;;;;;;;5075604;28;20039;-84
2023/07/20 08:34:36;;;;;;;8.15;5.55;;;;;;;;;;5073447;28;20020;-86
2023/07/20 08:37:06;;;;;;;7.72;5.35;;;;;;;;;;5092544;28;20028;-83
2023/07/20 08:39:32;;;;;;;8.95;5.93;;;;;;;;;;5091138;28;20075;-82
2023/07/20 08:42:01;;;;;;;7.40;5.32;;;;;;;;;;5071950;28;20024;-82
2023/07/20 08:44:27;;;;;;;7.28;5.30;;;;;;;;;;5090265;28;20477;-83
2023/07/20 08:46:53;;;;;;;8.77;7.03;;;;;;;;;;5089234;28;20071;-83
2023/07/20 08:49:20;;;;;;;6.25;4.70;;;;;;;;;;5078078;28;20048;-83
2023/07/20 08:51:47;;;;;;;6.82;5.05;;;;;;;;;;5089945;28;20115;-83
2023/07/20 08:54:14;;;;;;;7.45;5.13;;;;;;;;;;5071444;28;20028;-83
2023/07/20 08:56:41;;;;;;;6.75;4.72;;;;;;;;;;5092623;28;20043;-85
2023/07/20 08:59:08;;;;;;;8.05;4.82;;;;;;;;;;5088755;28;20005;-83
2023/07/20 09:01:35;;;;;;;7.55;4.65;;;;;;;;;;5081569;28;20041;-85
2023/07/20 09:04:02;;;;;;;6.00;4.47;;;;;;;;;;5091356;28;20063;-83
2023/07/20 09:06:28;;;;;;;7.22;4.68;;;;;;;;;;5073706;28;20123;-83
2023/07/20 09:08:55;;;;;;;7.65;4.80;;;;;;;;;;5073689;28;20591;-83
2023/07/20 09:11:21;;;;;;;7.60;4.88;;;;;;;;;;5074121;28;20020;-84
2023/07/20 09:13:47;;;;;;;7.95;5.75;;;;;;;;;;5074826;28;20028;-88
2023/07/20 09:16:16;;;;;;;11.30;5.82;;;;;;;;;;5078504;28;20033;-87
2023/07/20 09:18:43;;;;;;;7.90;5.38;;;;;;;;;;5093282;28;20082;-88
2023/07/20 09:21:09;;;;;;;7.82;5.03;;;;;;;;;;5096113;28;20051;-89
2023/07/20 09:23:36;;;;;;;5.95;4.30;;;;;;;;;;5095090;28;20025;-88
2023/07/20 09:26:16;;;;;;;6.13;4.25;;;;;;;;;;5076983;28;20021;-87
2023/07/20 09:28:45;;;;;;;6.10;4.38;;;;;;;;;;5073986;28;20025;-87
2023/07/20 09:31:18;;;;;;;7.25;4.70;;;;;;;;;;5076732;28;20020;-88
2023/07/20 09:33:45;;;;;;;5.47;4.40;;;;;;;;;;5078119;28;20028;-88
2023/07/20 09:36:11;;;;;;;8.63;4.50;;;;;;;;;;5090386;28;20430;-87
2023/07/20 09:38:37;;;;;;;8.55;4.90;;;;;;;;;;5090560;28;20033;-86
2023/07/20 09:41:06;;;;;;;7.90;5.10;;;;;;;;;;5091943;28;20016;-86
2023/07/20 09:43:35;;;;;;;6.57;4.43;;;;;;;;;;5078281;28;20397;-87
2023/07/20 09:46:01;;;;;;;6.78;4.35;;;;;;;;;;5076866;28;20020;-86
2023/07/20 09:48:27;;;;;;;6.70;4.90;;;;;;;;;;5075064;28;20033;-86
2023/07/20 09:50:55;;;;;;;5.82;3.90;;;;;;;;;;5077342;28;20024;-87
2023/07/20 09:53:24;;;;;;;7.80;4.57;;;;;;;;;;5071843;28;20040;-87
2023/07/20 09:55:51;;;;;;;8.18;4.72;;;;;;;;;;5076560;28;20017;-86
2023/07/20 09:58:17;;;;;;;7.57;4.28;;;;;;;;;;5079588;28;20025;-86
2023/07/20 10:00:46;;;;;;;8.07;5.25;;;;;;;;;;5093279;28;20028;-86
2023/07/20 10:03:15;;;;;;;7.40;4.82;;;;;;;;;;5078974;28;20082;-86
2023/07/20 10:05:44;;;;;;;7.05;4.93;;;;;;;;;;5092222;28;20028;-87
2023/07/20 10:08:12;;;;;;;5.70;4.35;;;;;;;;;;5075944;28;20035;-87
2023/07/20 10:10:39;;;;;;;7.05;4.65;;;;;;;;;;5073517;28;20679;-87
2023/07/20 10:13:06;;;;;;;6.43;5.05;;;;;;;;;;5092969;28;20033;-87
2023/07/20 10:15:32;;;;;;;8.80;5.50;;;;;;;;;;5076986;28;20386;-86
2023/07/20 10:18:00;;;;;;;8.45;5.22;;;;;;;;;;5077777;28;20032;-86
2023/07/20 10:20:28;;;;;;;10.32;5.95;;;;;;;;;;5092658;28;20125;-86
2023/07/20 10:22:54;;;;;;;7.18;5.30;;;;;;;;;;5073975;28;20078;-86
2023/07/20 10:25:21;;;;;;;7.60;6.05;;;;;;;;;;5070027;28;20025;-86
2023/07/20 10:27:48;;;;;;;10.02;6.47;;;;;;;;;;5069851;28;20031;-87
2023/07/20 10:30:14;;;;;;;10.00;5.70;;;;;;;;;;5072861;28;20036;-85
2023/07/20 10:32:41;;;;;;;9.48;6.03;;;;;;;;;;5079080;28;20024;-86
2023/07/20 10:35:17;;;;;;;8.40;5.72;;;;;;;;;;5073651;28;20080;-87
2023/07/20 10:37:46;;;;;;;9.13;6.15;;;;;;;;;;5089681;28;20028;-87
2023/07/20 10:40:28;;;;;;;9.52;5.97;;;;;;;;;;5076401;28;20050;-87
2023/07/20 10:43:01;;;;;;;10.15;6.22;;;;;;;;;;5073877;28;20056;-86
2023/07/20 10:45:37;;;;;;;9.10;5.95;;;;;;;;;;5091896;28;20029;-87
2023/07/20 10:48:05;;;;;;;8.10;6.03;;;;;;;;;;5090307;28;20285;-86
2023/07/20 10:50:31;;;;;;;8.43;5.65;;;;;;;;;;5064073;28;20036;-88
2023/07/20 10:53:11;;;;;;;11.40;6.25;;;;;;;;;;5091110;28;20040;-85
2023/07/20 10:55:37;;;;;;;10.27;6.20;;;;;;;;;;5080322;28;20036;-86
2023/07/20 10:58:08;;;;;;;7.90;6.15;;;;;;;;;;5092504;28;20051;-88
2023/07/20 11:00:34;;;;;;;10.85;6.70;;;;;;;;;;5095843;28;20119;-87
2023/07/20 11:03:00;;;;;;;7.45;6.13;;;;;;;;;;5097116;28;20087;-86
2023/07/20 11:05:37;;;;;;;8.98;5.60;;;;;;;;;;5094882;28;20452;-87
2023/07/20 11:08:10;;;;;;;9.43;6.53;;;;;;;;;;5097501;22;20034;-69
2023/07/20 11:10:36;;;;;;;8.00;5.70;;;;;;;;;;5035778;28;20035;-69
2023/07/20 11:13:22;;;;;;;7.70;6.07;;;;;;;;;;5055737;28;20040;-69
2023/07/20 11:16:09;;;;;;;8.52;5.70;;;;;;;;;;5062671;28;20039;-69
2023/07/20 11:18:39;;;;;;;7.72;5.60;;;;;;;;;;5064853;28;20050;-70
2023/07/20 11:21:07;;;;;;;8.00;5.93;;;;;;;;;;5063879;28;20055;-70
2023/07/20 11:23:34;;;;;;;7.70;6.22;;;;;;;;;;5055364;28;20021;-70
2023/07/20 11:26:00;;;;;;;9.25;6.07;;;;;;;;;;5048233;28;20040;-70
2023/07/20 11:28:26;;;;;;;7.35;5.53;;;;;;;;;;5064173;28;20054;-70
2023/07/20 11:30:56;;;;;;;8.82;6.30;;;;;;;;;;5059146;28;20034;-67
2023/07/20 11:33:22;;;;;;;9.70;5.78;;;;;;;;;;5053864;28;20061;-67
2023/07/20 11:35:50;;;;;;;7.05;5.57;;;;;;;;;;5055490;28;20230;-68
2023/07/20 11:38:17;;;;;;;8.07;5.63;;;;;;;;;;5052337;28;20028;-69
2023/07/20 11:40:43;;;;;;;8.20;5.70;;;;;;;;;;5054416;28;20025;-69
2023/07/20 11:43:10;;;;;;;7.88;5.93;;;;;;;;;;5062303;28;20021;-68
2023/07/20 11:45:38;;;;;;;7.78;6.30;;;;;;;;;;5061882;28;20028;-69
2023/07/20 11:48:04;;;;;;;8.50;6.63;;;;;;;;;;5059124;28;20024;-68
2023/07/20 11:50:31;;;;;;;8.63;6.57;;;;;;;;;;5062137;28;20468;-68
2023/07/20 11:52:57;;;;;;;11.80;6.72;;;;;;;;;;5047706;28;20100;-67
2023/07/20 11:55:23;;;;;;;8.60;6.30;;;;;;;;;;5056451;28;20563;-68
2023/07/20 11:58:02;;;;;;;7.80;6.18;;;;;;;;;;5052777;28;20412;-68
2023/07/20 12:00:29;;;;;;;9.07;6.95;;;;;;;;;;5062434;28;20032;-69
2023/07/20 12:02:55;;;;;;;10.38;6.93;;;;;;;;;;5067360;28;20020;-69
2023/07/20 12:05:23;;;;;;;11.10;7.90;;;;;;;;;;5066770;28;20050;-69
2023/07/20 12:07:53;;;;;;;9.80;6.75;;;;;;;;;;5060808;28;20044;-68
2023/07/20 12:10:29;;;;;;;6.97;6.28;;;;;;;;;;5056272;28;20074;-67
2023/07/20 12:13:03;;;;;;;8.30;5.35;;;;;;;;;;5063165;28;20339;-69
2023/07/20 12:15:30;;;;;;;8.32;6.40;;;;;;;;;;5058020;28;20051;-69
2023/07/20 12:18:00;;;;;;;8.20;6.53;;;;;;;;;;5053669;28;20037;-68
2023/07/20 12:20:30;;;;;;;9.00;6.15;;;;;;;;;;5057642;28;20064;-68
2023/07/20 12:22:57;;;;;;;8.65;6.68;;;;;;;;;;5052194;28;20024;-67
2023/07/20 12:25:23;;;;;;;9.75;6.80;;;;;;;;;;5054991;28;20028;-66
2023/07/20 12:27:50;;;;;;;6.40;5.40;;;;;;;;;;5055280;28;20021;-68
2023/07/20 12:30:16;;;;;;;10.73;6.47;;;;;;;;;;5062095;28;20150;-70
2023/07/20 12:32:43;;;;;;;9.63;6.95;;;;;;;;;;5062508;28;20140;-69
2023/07/20 12:35:11;;;;;;;8.57;6.38;;;;;;;;;;5071291;28;20032;-69
2023/07/20 12:40:10;;;;;;;11.80;7.63;;;;;;;;;;4980244;22;20049;-75
2023/07/20 12:42:37;;;;;;;9.75;7.20;;;;;;;;;;5037769;28;20029;-75
2023/07/20 12:45:03;;;;;;;11.35;7.78;;;;;;;;;;5038757;28;20028;-74
2023/07/20 12:47:29;;;;;;;8.98;6.93;;;;;;;;;;5041837;28;20037;-76
2023/07/20 12:49:55;;;;;;;9.88;7.15;;;;;;;;;;5040464;28;20063;-74
2023/07/20 12:52:21;;;;;;;9.68;7.43;;;;;;;;;;5040352;28;20029;-74
2023/07/20 12:54:47;;;;;;;9.52;7.50;;;;;;;;;;5040252;28;20592;-74
2023/07/20 12:57:13;;;;;;;11.10;7.35;;;;;;;;;;5041826;28;20021;-73
2023/07/20 12:59:39;;;;;;;9.82;6.88;;;;;;;;;;5057763;28;20024;-73
2023/07/20 13:02:06;;;;;;;8.05;6.80;;;;;;;;;;5042588;28;20028;-74
2023/07/20 13:04:32;;;;;;;7.20;6.28;;;;;;;;;;5041599;28;20438;-73
2023/07/20 13:06:59;;;;;;;8.90;6.78;;;;;;;;;;5041931;28;20029;-74
2023/07/20 13:09:25;;;;;;;12.20;6.93;;;;;;;;;;5037824;28;20037;-72
2023/07/20 13:11:52;;;;;;;9.48;6.90;;;;;;;;;;5037246;28;20036;-73
2023/07/20 13:14:18;;;;;;;7.70;6.88;;;;;;;;;;5040352;28;20063;-72
2023/07/20 13:16:44;;;;;;;9.75;7.47;;;;;;;;;;5040657;28;20029;-70
2023/07/20 13:19:10;;;;;;;11.68;7.72;;;;;;;;;;5037936;28;20563;-72
2023/07/20 13:21:36;;;;;;;10.82;7.15;;;;;;;;;;5051872;28;20528;-69
2023/07/20 13:24:04;;;;;;;12.57;8.02;;;;;;;;;;5051247;28;20443;-70
2023/07/20 13:26:30;;;;;;;12.25;8.57;;;;;;;;;;5039402;28;20033;-67
2023/07/20 13:28:57;;;;;;;11.38;8.23;;;;;;;;;;5039879;28;20636;-70
2023/07/20 13:31:23;;;;;;;12.77;9.45;;;;;;;;;;5036349;28;20492;-70
2023/07/20 13:33:49;;;;;;;12.82;8.70;;;;;;;;;;5040916;28;20033;-73
2023/07/20 13:36:15;;;;;;;13.77;8.98;;;;;;;;;;5038470;28;20081;-69
2023/07/20 13:38:41;;;;;;;15.13;8.73;;;;;;;;;;5037700;28;20159;-69
2023/07/20 13:41:07;;;;;;;12.63;8.85;;;;;;;;;;5034063;28;20120;-72
2023/07/20 13:43:33;;;;;;;12.57;9.63;;;;;;;;;;5042160;28;20027;-70
2023/07/20 13:45:59;;;;;;;11.95;9.30;;;;;;;;;;5041244;28;20530;-69
2023/07/20 13:48:27;;;;;;;10.70;8.45;;;;;;;;;;5044218;28;20137;-69
2023/07/20 13:50:53;;;;;;;11.82;8.13;;;;;;;;;;5039483;28;20040;-69
2023/07/20 13:53:20;;;;;;;13.40;9.10;;;;;;;;;;5037988;28;20082;-70
2023/07/20 13:55:46;;;;;;;12.50;9.13;;;;;;;;;;5044167;28;20021;-73
2023/07/20 13:58:13;;;;;;;10.98;8.82;;;;;;;;;;5046393;28;20503;-71
2023/07/20 14:00:39;;;;;;;12.02;8.48;;;;;;;;;;5040863;28;20029;-69
2023/07/20 14:03:05;;;;;;;12.25;8.80;;;;;;;;;;5036871;28;20034;-70
2023/07/20 14:05:31;;;;;;;12.95;9.07;;;;;;;;;;5039197;28;20033;-74
2023/07/20 14:07:57;;;;;;;9.57;8.13;;;;;;;;;;5039956;28;20563;-74
2023/07/20 14:10:23;;;;;;;7.15;6.43;;;;;;;;;;5035265;28;20040;-74
2023/07/20 14:12:51;;;;;;;8.30;6.32;;;;;;;;;;5039865;28;20063;-75
2023/07/20 14:15:18;;;;;;;10.35;7.10;;;;;;;;;;5039469;28;20479;-74
2023/07/20 14:17:45;;;;;;;6.32;5.72;;;;;;;;;;5036749;28;20108;-74
2023/07/20 14:20:11;;;;;;;6.72;5.97;;;;;;;;;;5034468;28;20020;-75
2023/07/20 14:22:38;;;;;;;6.72;5.68;;;;;;;;;;5030328;28;20021;-74
2023/07/20 14:25:04;;;;;;;6.88;5.75;;;;;;;;;;5030245;28;20044;-75
2023/07/20 14:27:30;;;;;;;7.95;6.30;;;;;;;;;;5036713;28;20178;-76
2023/07/20 14:29:57;;;;;;;6.68;5.80;;;;;;;;;;5039203;28;20649;-74
2023/07/20 14:32:23;;;;;;;8.55;7.03;;;;;;;;;;5030462;28;20033;-75
2023/07/20 14:34:49;;;;;;;8.13;6.65;;;;;;;;;;5038788;28;20032;-73
2023/07/20 14:37:16;;;;;;;6.78;5.88;;;;;;;;;;5045818;28;20033;-76
2023/07/20 14:39:42;;;;;;;7.38;6.55;;;;;;;;;;5052186;28;20106;-77
2023/07/20 14:42:08;;;;;;;8.18;6.07;;;;;;;;;;5034931;28;20036;-75
2023/07/20 14:44:34;;;;;;;7.53;6.30;;;;;;;;;;5050559;28;20432;-77